Time;durP1;ratioP1;P1;durP2;ratioP2;P2;SDS_P1;SDS_P2;PMS_P1;PMS_P2;Temp;Humidity;BMP_temperature;BMP_pressure;BME280_temperature;BME280_humidity;BME280_pressure;Samples;Min_cycle;Max_cycle;Signal;HPM_P1;HPM_P2
2023/01/31 00:01:23;;;;;;;26.23;2.55;;;2.20;99.90;;;;;;5009029;28;20048;-46
2023/01/31 00:04:00;;;;;;;22.73;1.95;;;2.20;99.90;;;;;;5009301;28;20080;-48
2023/01/31 00:06:35;;;;;;;23.02;2.40;;;2.20;99.90;;;;;;5008917;28;20041;-47
2023/01/31 00:09:03;;;;;;;34.88;3.25;;;2.20;99.90;;;;;;5007986;28;20046;-49
2023/01/31 00:11:29;;;;;;;33.88;3.50;;;2.00;99.90;;;;;;5008754;28;20046;-48
2023/01/31 00:13:58;;;;;;;23.13;2.15;;;2.20;99.90;;;;;;5008358;28;20484;-48
2023/01/31 00:16:23;;;;;;;28.20;3.72;;;2.20;99.90;;;;;;5008753;28;20115;-47
2023/01/31 00:18:49;;;;;;;21.80;3.35;;;2.20;99.90;;;;;;5009167;28;20042;-47
2023/01/31 00:21:18;;;;;;;19.40;3.63;;;2.20;99.90;;;;;;5009034;28;20423;-47
2023/01/31 00:23:44;;;;;;;15.50;1.92;;;2.30;99.90;;;;;;5008957;28;20124;-46
2023/01/31 00:26:19;;;;;;;25.42;1.90;;;2.30;99.90;;;;;;5008680;28;20049;-47
2023/01/31 00:28:46;;;;;;;20.88;1.65;;;2.20;99.90;;;;;;5008750;28;20050;-45
2023/01/31 00:31:14;;;;;;;33.00;3.28;;;2.30;99.90;;;;;;5008377;28;20469;-47
2023/01/31 00:33:41;;;;;;;20.90;1.80;;;2.30;99.90;;;;;;5008122;28;20598;-46
2023/01/31 00:36:11;;;;;;;32.40;4.57;;;2.20;99.90;;;;;;5007610;28;20049;-46
2023/01/31 00:38:37;;;;;;;14.57;2.30;;;2.20;99.90;;;;;;5007933;28;20633;-46
2023/01/31 00:41:04;;;;;;;26.67;2.03;;;2.20;99.90;;;;;;5008346;28;20117;-47
2023/01/31 00:43:32;;;;;;;20.02;2.10;;;2.20;99.90;;;;;;5007818;28;20046;-47
2023/01/31 00:45:58;;;;;;;21.60;2.85;;;2.20;99.90;;;;;;5005607;28;20156;-47
2023/01/31 00:48:24;;;;;;;27.02;4.93;;;2.20;99.90;;;;;;5008031;28;20038;-49
2023/01/31 00:50:49;;;;;;;14.38;1.38;;;2.20;99.90;;;;;;5008344;28;20133;-47
2023/01/31 00:53:17;;;;;;;22.13;1.73;;;2.10;99.90;;;;;;5007870;28;20042;-47
2023/01/31 00:55:43;;;;;;;21.85;3.08;;;2.10;99.90;;;;;;5007789;28;20496;-49
2023/01/31 00:58:09;;;;;;;30.88;3.38;;;2.10;99.90;;;;;;5007705;28;20377;-47
2023/01/31 01:00:34;;;;;;;20.38;1.30;;;1.90;99.90;;;;;;5007587;28;20137;-48
2023/01/31 01:03:00;;;;;;;14.45;1.60;;;2.00;99.90;;;;;;5007475;28;20092;-47
2023/01/31 01:05:26;;;;;;;23.33;2.55;;;2.00;99.90;;;;;;5007751;28;20061;-47
2023/01/31 01:07:51;;;;;;;25.02;1.95;;;3.00;99.90;;;;;;5008109;28;20129;-47
2023/01/31 01:10:17;;;;;;;16.50;1.73;;;2.10;99.90;;;;;;5007810;28;20042;-48
2023/01/31 01:12:43;;;;;;;20.10;2.30;;;2.00;99.90;;;;;;5007888;28;20460;-47
2023/01/31 01:15:09;;;;;;;23.52;1.90;;;1.90;99.90;;;;;;5007359;28;20049;-48
2023/01/31 01:17:34;;;;;;;18.00;1.80;;;1.80;99.90;;;;;;5007079;28;20042;-50
2023/01/31 01:20:02;;;;;;;14.25;1.23;;;1.80;99.90;;;;;;5007604;28;20042;-48
2023/01/31 01:22:29;;;;;;;16.88;2.60;;;1.80;99.90;;;;;;5006133;28;20439;-48
2023/01/31 01:24:55;;;;;;;20.85;2.67;;;1.50;99.90;;;;;;5007021;28;20045;-46
2023/01/31 01:27:21;;;;;;;23.10;1.95;;;1.50;99.90;;;;;;5007119;28;20045;-47
2023/01/31 01:29:46;;;;;;;20.27;2.30;;;1.60;99.90;;;;;;5007024;28;20049;-47
2023/01/31 01:32:12;;;;;;;14.57;1.35;;;1.50;99.90;;;;;;5006956;28;20072;-50
2023/01/31 01:34:38;;;;;;;16.80;2.05;;;1.60;99.90;;;;;;5007380;28;20099;-48
2023/01/31 01:37:10;;;;;;;14.60;1.55;;;1.60;99.90;;;;;;5007087;28;20400;-47
2023/01/31 01:39:39;;;;;;;15.98;1.67;;;1.50;99.90;;;;;;5007549;28;20085;-48
2023/01/31 01:42:07;;;;;;;16.02;1.25;;;1.40;99.90;;;;;;5005849;28;20049;-46
2023/01/31 01:44:52;;;;;;;14.57;2.15;;;1.60;99.90;;;;;;5007398;28;20107;-47
2023/01/31 01:47:22;;;;;;;20.70;1.42;;;1.40;99.90;;;;;;5007535;28;20144;-47
2023/01/31 01:49:57;;;;;;;19.42;1.90;;;1.60;99.90;;;;;;5007188;28;20102;-49
2023/01/31 01:52:25;;;;;;;17.17;1.40;;;1.50;99.90;;;;;;5007249;28;20046;-47
2023/01/31 01:55:02;;;;;;;20.27;1.42;;;1.50;99.90;;;;;;5007037;28;20046;-46
2023/01/31 01:57:34;;;;;;;23.33;1.60;;;1.30;99.90;;;;;;5005754;28;20488;-50
2023/01/31 02:00:14;;;;;;;24.98;1.75;;;1.60;99.90;;;;;;5007128;28;20117;-49
2023/01/31 02:02:42;;;;;;;15.75;1.55;;;1.60;99.90;;;;;;5007145;28;20111;-46
2023/01/31 02:05:10;;;;;;;21.00;2.28;;;1.70;99.90;;;;;;5007188;28;20064;-49
2023/01/31 02:07:36;;;;;;;27.08;2.75;;;1.70;99.90;;;;;;5006827;28;20060;-49
2023/01/31 02:10:08;;;;;;;17.25;1.20;;;1.80;99.90;;;;;;5006380;28;20045;-47
2023/01/31 02:12:35;;;;;;;15.57;1.70;;;1.80;99.90;;;;;;5006454;28;20060;-46
2023/01/31 02:15:01;;;;;;;19.25;2.92;;;1.90;99.90;;;;;;5006187;28;20161;-49
2023/01/31 02:17:27;;;;;;;18.58;2.72;;;1.80;99.90;;;;;;5004147;28;20436;-47
2023/01/31 02:20:15;;;;;;;30.33;4.10;;;2.00;99.90;;;;;;5006655;28;20054;-47
2023/01/31 02:23:05;;;;;;;22.73;3.42;;;1.60;99.90;;;;;;4984631;28;20635;-47
2023/01/31 02:25:55;;;;;;;18.20;1.75;;;1.60;99.90;;;;;;5006159;28;20107;-46
2023/01/31 02:28:48;;;;;;;18.05;1.38;;;1.60;99.90;;;;;;5006655;28;20132;-46
2023/01/31 02:31:22;;;;;;;15.65;1.58;;;1.70;99.90;;;;;;5006773;28;20053;-48
2023/01/31 02:33:58;;;;;;;16.83;2.35;;;1.80;99.90;;;;;;5006574;28;20073;-47
2023/01/31 02:36:41;;;;;;;13.38;0.80;;;1.80;99.90;;;;;;5005985;28;20054;-46
2023/01/31 02:39:25;;;;;;;13.13;1.27;;;1.90;99.90;;;;;;5006123;28;20046;-46
2023/01/31 02:42:09;;;;;;;14.88;1.38;;;2.00;99.90;;;;;;5006239;28;20045;-47
2023/01/31 02:44:59;;;;;;;14.48;2.10;;;2.10;99.90;;;;;;5006305;28;20057;-47
2023/01/31 02:47:42;;;;;;;16.65;1.65;;;2.30;99.90;;;;;;5006389;28;20752;-46
2023/01/31 02:50:07;;;;;;;;;;;2.20;99.90;;;;;;5006580;28;20054;-46
2023/01/31 02:52:36;;;;;;;16.00;0.95;;;2.20;99.90;;;;;;5005710;28;20332;-47
2023/01/31 02:58:01;;;;;;;17.42;1.63;;;2.40;99.90;;;;;;5005653;28;20420;-46
2023/01/31 03:00:30;;;;;;;18.17;2.92;;;2.40;99.90;;;;;;5005430;28;20042;-47
2023/01/31 03:02:56;;;;;;;25.65;2.53;;;2.40;99.90;;;;;;5005983;28;20140;-47
2023/01/31 03:05:22;;;;;;;14.60;2.53;;;2.50;99.90;;;;;;5005847;28;20129;-47
2023/01/31 03:07:59;;;;;;;13.43;1.58;;;2.60;99.90;;;;;;5006088;28;20050;-46
2023/01/31 03:10:33;;;;;;;16.67;1.10;;;2.60;99.90;;;;;;5006032;28;20056;-46
2023/01/31 03:13:19;;;;;;;22.55;1.80;;;2.70;99.90;;;;;;5006167;28;20855;-47
2023/01/31 03:19:26;;;;;;;14.20;1.10;;;2.70;99.90;;;;;;5006201;28;20065;-48
2023/01/31 03:21:59;;;;;;;10.13;1.65;;;2.80;99.90;;;;;;5002795;28;20060;-48
2023/01/31 03:24:29;;;;;;;14.23;1.45;;;2.80;99.90;;;;;;5006018;28;20041;-45
2023/01/31 03:26:57;;;;;;;18.75;3.25;;;2.80;99.90;;;;;;5006361;28;20045;-47
2023/01/31 03:29:26;;;;;;;14.90;0.90;;;2.80;99.90;;;;;;5006173;28;20046;-46
2023/01/31 03:31:57;;;;;;;11.57;1.13;;;3.20;99.90;;;;;;5006121;28;20053;-49
2023/01/31 03:34:24;;;;;;;15.82;2.80;;;2.80;99.90;;;;;;5004705;28;20157;-47
2023/01/31 03:37:16;;;;;;;12.57;1.42;;;2.90;99.90;;;;;;5005095;28;20545;-46
2023/01/31 03:40:03;;;;;;;18.95;1.50;;;2.90;99.90;;;;;;5002495;28;20053;-45
2023/01/31 03:42:46;;;;;;;15.60;1.73;;;3.00;99.90;;;;;;5005653;28;20738;-48
2023/01/31 03:45:20;;;;;;;21.05;1.60;;;3.00;99.90;;;;;;5005548;28;20088;-47
2023/01/31 03:47:48;;;;;;;12.05;2.20;;;2.90;99.90;;;;;;5005647;28;20165;-47
2023/01/31 03:50:23;;;;;;;8.18;1.27;;;3.10;99.90;;;;;;5005962;28;20068;-48
2023/01/31 03:52:55;;;;;;;11.85;1.30;;;3.10;99.90;;;;;;5005360;28;20127;-47
2023/01/31 03:55:26;;;;;;;;;;;4.00;99.90;;;;;;5004317;28;20077;-46
2023/01/31 03:57:54;;;;;;;12.75;1.23;;;3.20;99.90;;;;;;5005487;28;19925;-45
2023/01/31 04:00:23;;;;;;;15.27;1.20;;;3.20;99.90;;;;;;5005714;28;20050;-47
2023/01/31 04:03:07;;;;;;;14.70;2.08;;;3.30;99.90;;;;;;5005575;28;20038;-45
2023/01/31 04:05:33;;;;;;;16.75;1.60;;;3.40;99.90;;;;;;5005019;28;20108;-46
2023/01/31 04:07:59;;;;;;;16.35;1.38;;;3.30;99.90;;;;;;5005380;28;20435;-46
2023/01/31 04:10:25;;;;;;;18.30;2.63;;;3.30;99.90;;;;;;4987225;28;20034;-46
2023/01/31 04:12:51;;;;;;;22.15;2.70;;;4.20;99.90;;;;;;5005249;28;20473;-46
2023/01/31 04:15:17;;;;;;;15.10;1.65;;;3.40;99.90;;;;;;5005154;28;20045;-46
2023/01/31 04:17:43;;;;;;;12.15;1.80;;;3.40;99.90;;;;;;5004966;28;20050;-47
2023/01/31 04:20:10;;;;;;;17.75;2.05;;;3.50;99.90;;;;;;5006776;28;20068;-45
2023/01/31 04:22:36;;;;;;;19.52;2.38;;;3.50;99.90;;;;;;5009370;28;20383;-47
2023/01/31 04:25:03;;;;;;;11.43;2.20;;;3.50;99.90;;;;;;5008883;28;20056;-46
2023/01/31 04:27:28;;;;;;;23.83;4.70;;;3.60;99.90;;;;;;5008768;28;20580;-46
2023/01/31 04:29:54;;;;;;;19.63;3.88;;;3.60;99.90;;;;;;5008350;28;20077;-46
2023/01/31 04:32:20;;;;;;;13.38;2.20;;;3.60;99.90;;;;;;5008557;28;20058;-47
2023/01/31 04:34:45;;;;;;;23.35;2.03;;;3.60;99.90;;;;;;5007995;28;20045;-46
2023/01/31 04:37:11;;;;;;;16.25;2.58;;;3.60;99.90;;;;;;5008786;28;20081;-46
2023/01/31 04:39:36;;;;;;;27.42;2.63;;;3.70;99.90;;;;;;5007952;28;20049;-46
2023/01/31 04:42:02;;;;;;;9.48;1.50;;;3.70;99.90;;;;;;5008635;28;20037;-50
2023/01/31 04:44:28;;;;;;;17.65;2.85;;;3.80;99.90;;;;;;5008778;28;20395;-48
2023/01/31 04:46:53;;;;;;;17.38;1.98;;;4.10;99.90;;;;;;5008596;28;20484;-47
2023/01/31 04:49:19;;;;;;;13.65;1.42;;;3.80;99.90;;;;;;5008257;28;20373;-47
2023/01/31 04:51:45;;;;;;;26.95;3.40;;;3.80;99.90;;;;;;5008326;28;20396;-45
2023/01/31 04:54:10;;;;;;;14.20;1.88;;;3.90;99.90;;;;;;5007459;28;20068;-48
2023/01/31 04:56:36;;;;;;;19.40;2.60;;;4.00;99.90;;;;;;5006924;28;20060;-49
2023/01/31 04:59:02;;;;;;;15.98;1.98;;;3.90;99.90;;;;;;5008325;28;20046;-47
2023/01/31 05:01:28;;;;;;;12.85;2.15;;;4.00;99.90;;;;;;5005938;28;20045;-48
2023/01/31 05:03:53;;;;;;;16.35;1.75;;;4.10;99.90;;;;;;4991617;28;20049;-51
2023/01/31 05:06:19;;;;;;;17.52;3.30;;;4.20;99.90;;;;;;5025445;28;20049;-56
2023/01/31 05:08:45;;;;;;;19.63;3.33;;;4.00;99.90;;;;;;5026831;28;20073;-57
2023/01/31 05:11:11;;;;;;;15.35;1.63;;;4.10;99.90;;;;;;5026790;28;20116;-49
2023/01/31 05:13:40;;;;;;;19.88;2.13;;;4.20;99.90;;;;;;5026675;28;20077;-51
2023/01/31 05:16:10;;;;;;;18.08;2.67;;;4.20;99.90;;;;;;5026079;28;20049;-51
2023/01/31 05:18:37;;;;;;;20.10;3.08;;;4.50;99.90;;;;;;5026919;28;20041;-55
2023/01/31 05:21:04;;;;;;;20.77;3.05;;;4.20;99.90;;;;;;5027806;28;20053;-49
2023/01/31 05:23:30;;;;;;;19.52;3.28;;;5.30;99.90;;;;;;5027217;28;20073;-52
2023/01/31 05:25:57;;;;;;;12.43;1.63;;;4.20;99.90;;;;;;5027855;28;20037;-50
2023/01/31 05:28:28;;;;;;;22.83;3.15;;;4.20;99.90;;;;;;5029065;28;20044;-46
2023/01/31 05:31:01;;;;;;;19.73;1.90;;;4.30;99.90;;;;;;5026597;28;20077;-58
2023/01/31 05:33:27;;;;;;;17.33;3.97;;;4.50;99.90;;;;;;5025348;28;20535;-48
2023/01/31 05:35:53;;;;;;;20.33;2.63;;;4.20;99.90;;;;;;5026912;28;20052;-48
2023/01/31 05:38:19;;;;;;;17.80;3.58;;;4.30;99.90;;;;;;5027696;28;20036;-48
2023/01/31 05:40:45;;;;;;;12.50;1.95;;;4.20;99.90;;;;;;5027874;28;20041;-49
2023/01/31 05:43:11;;;;;;;11.98;2.08;;;4.30;99.90;;;;;;5028416;28;20095;-48
2023/01/31 05:45:36;;;;;;;23.02;2.75;;;4.30;99.90;;;;;;5027910;28;20042;-49
2023/01/31 05:48:02;;;;;;;11.88;1.52;;;4.30;99.90;;;;;;5027570;28;20041;-48
2023/01/31 05:50:28;;;;;;;24.48;2.38;;;4.30;99.90;;;;;;5027719;28;20124;-48
2023/01/31 05:52:58;;;;;;;22.83;3.90;;;4.40;99.90;;;;;;5027695;28;20344;-48
2023/01/31 05:55:25;;;;;;;19.00;3.53;;;4.40;99.90;;;;;;5027828;28;20041;-48
2023/01/31 05:57:52;;;;;;;17.17;2.78;;;4.40;99.90;;;;;;5027337;28;20111;-49
2023/01/31 06:00:18;;;;;;;14.55;2.33;;;4.40;99.90;;;;;;5027787;28;20045;-48
2023/01/31 06:02:44;;;;;;;17.13;2.97;;;3.30;99.90;;;;;;5027877;28;20119;-49
2023/01/31 06:05:11;;;;;;;21.48;3.20;;;5.10;99.90;;;;;;5027613;28;20092;-48
2023/01/31 06:07:37;;;;;;;18.33;3.20;;;4.60;99.90;;;;;;5027750;28;20049;-48
2023/01/31 06:10:03;;;;;;;21.17;3.70;;;4.50;99.90;;;;;;5027387;28;20179;-49
2023/01/31 06:12:30;;;;;;;24.65;2.95;;;4.50;99.90;;;;;;5027408;28;20428;-47
2023/01/31 06:14:55;;;;;;;18.55;3.35;;;4.60;99.90;;;;;;5026915;28;20614;-48
2023/01/31 06:17:22;;;;;;;26.20;6.85;;;5.30;99.90;;;;;;5025618;28;20049;-50
2023/01/31 06:19:49;;;;;;;20.13;4.60;;;4.60;99.90;;;;;;5027741;28;20041;-49
2023/01/31 06:22:14;;;;;;;18.92;3.72;;;4.60;99.90;;;;;;5027415;28;20041;-49
2023/01/31 06:24:40;;;;;;;19.73;4.18;;;4.90;99.90;;;;;;5027241;28;20045;-47
2023/01/31 06:27:06;;;;;;;15.07;3.63;;;4.60;99.90;;;;;;5027714;28;20060;-49
2023/01/31 06:29:31;;;;;;;25.50;4.15;;;4.60;99.90;;;;;;5027392;28;20925;-48
2023/01/31 06:31:57;;;;;;;23.85;3.78;;;4.60;99.90;;;;;;5026947;28;20056;-48
2023/01/31 06:34:23;;;;;;;17.20;3.90;;;5.50;99.90;;;;;;5026768;28;20060;-48
2023/01/31 06:36:48;;;;;;;25.42;3.42;;;4.60;99.90;;;;;;5027321;28;20698;-48
2023/01/31 06:39:14;;;;;;;22.40;4.72;;;4.60;99.90;;;;;;5025892;28;20061;-47
2023/01/31 06:41:40;;;;;;;20.58;3.38;;;5.40;99.90;;;;;;5027352;28;20120;-48
2023/01/31 06:44:06;;;;;;;20.50;4.13;;;4.60;99.90;;;;;;5026458;28;20041;-48
2023/01/31 06:46:32;;;;;;;27.73;3.85;;;4.60;99.90;;;;;;5026974;28;20102;-50
2023/01/31 06:48:58;;;;;;;26.15;3.53;;;5.00;99.90;;;;;;5026789;28;20045;-49
2023/01/31 06:51:23;;;;;;;21.25;4.22;;;4.80;99.90;;;;;;5026648;28;20045;-57
2023/01/31 06:53:52;;;;;;;19.52;3.40;;;5.20;99.90;;;;;;5008768;28;20370;-47
2023/01/31 06:56:18;;;;;;;20.85;3.63;;;5.00;99.90;;;;;;5026432;28;20181;-47
2023/01/31 06:58:44;;;;;;;22.92;3.60;;;4.60;99.90;;;;;;5026993;28;20376;-49
2023/01/31 07:01:12;;;;;;;20.17;4.78;;;4.70;99.90;;;;;;5026924;28;20041;-49
2023/01/31 07:03:38;;;;;;;23.08;4.07;;;4.70;99.90;;;;;;5027329;28;20041;-48
2023/01/31 07:06:05;;;;;;;28.40;5.03;;;5.90;99.90;;;;;;5026662;28;20494;-50
2023/01/31 07:08:31;;;;;;;20.85;4.22;;;4.70;99.90;;;;;;5026934;28;20049;-49
2023/01/31 07:11:00;;;;;;;20.08;4.28;;;4.60;99.90;;;;;;5026628;28;20044;-49
2023/01/31 07:13:27;;;;;;;30.90;4.75;;;4.80;99.90;;;;;;5026821;28;20042;-47
2023/01/31 07:15:53;;;;;;;22.67;4.13;;;4.70;99.90;;;;;;5026562;28;20350;-48
2023/01/31 07:18:19;;;;;;;26.27;3.80;;;4.80;99.90;;;;;;5026728;28;20088;-48
2023/01/31 07:20:44;;;;;;;21.17;3.92;;;4.60;99.90;;;;;;5026963;28;20076;-47
2023/01/31 07:23:10;;;;;;;21.55;3.70;;;4.80;99.90;;;;;;5026560;28;20041;-47
2023/01/31 07:25:36;;;;;;;18.30;3.92;;;4.60;99.90;;;;;;5026765;28;20041;-47
2023/01/31 07:28:02;;;;;;;22.45;3.67;;;4.70;99.90;;;;;;5026376;28;20045;-47
2023/01/31 07:30:28;;;;;;;17.20;3.63;;;4.90;99.90;;;;;;5026423;28;20514;-47
2023/01/31 07:32:54;;;;;;;19.02;2.83;;;4.70;99.90;;;;;;5026246;28;20495;-50
2023/01/31 07:35:20;;;;;;;23.75;4.13;;;4.70;99.90;;;;;;5025812;28;20094;-50
2023/01/31 07:37:46;;;;;;;18.65;3.50;;;5.20;99.90;;;;;;5026243;28;20065;-48
2023/01/31 07:40:14;;;;;;;20.58;3.38;;;5.40;99.90;;;;;;5025979;28;20050;-47
2023/01/31 07:42:40;;;;;;;19.70;3.60;;;5.10;99.90;;;;;;5026541;28;20780;-48
2023/01/31 07:45:09;;;;;;;16.67;2.55;;;4.90;99.90;;;;;;5026445;28;20076;-49
2023/01/31 07:47:34;;;;;;;12.90;3.33;;;5.10;99.90;;;;;;5026656;28;20049;-49
2023/01/31 07:50:00;;;;;;;16.92;2.53;;;5.10;99.90;;;;;;5026453;28;20502;-48
2023/01/31 07:52:25;;;;;;;20.23;3.40;;;5.10;99.90;;;;;;5026060;28;20426;-48
2023/01/31 07:54:51;;;;;;;12.63;3.10;;;5.20;99.90;;;;;;5026873;28;20077;-48
2023/01/31 07:57:17;;;;;;;21.45;4.25;;;5.20;99.90;;;;;;5029262;28;20491;-48
2023/01/31 07:59:43;;;;;;;18.55;2.80;;;6.20;99.90;;;;;;5029571;28;20498;-51
2023/01/31 08:04:56;;;;;;;16.33;2.08;;;5.10;99.90;;;;;;5027289;28;20056;-48
2023/01/31 08:07:21;;;;;;;14.02;2.10;;;5.40;99.90;;;;;;5028323;28;20049;-51
2023/01/31 08:09:49;;;;;;;23.08;1.88;;;5.50;99.90;;;;;;5027893;28;20132;-47
2023/01/31 08:12:15;;;;;;;17.83;2.92;;;5.40;99.90;;;;;;5028680;28;20401;-47
2023/01/31 08:14:41;;;;;;;13.60;1.65;;;5.30;99.90;;;;;;5029348;28;20426;-48
2023/01/31 08:17:07;;;;;;;12.85;1.95;;;6.50;99.90;;;;;;5028500;28;20049;-48
2023/01/31 08:19:33;;;;;;;10.48;1.90;;;5.30;99.90;;;;;;5029003;28;20049;-48
2023/01/31 08:22:00;;;;;;;16.15;2.90;;;5.60;99.90;;;;;;5028765;28;20053;-50
2023/01/31 08:24:25;;;;;;;18.58;2.47;;;5.40;99.90;;;;;;5028606;28;20037;-48
2023/01/31 08:26:51;;;;;;;10.60;1.73;;;6.30;99.90;;;;;;5028687;28;20045;-47
2023/01/31 08:29:17;;;;;;;17.45;1.88;;;5.70;99.90;;;;;;5027407;28;20394;-53
2023/01/31 08:31:43;;;;;;;14.63;2.33;;;5.60;99.90;;;;;;5029145;28;20162;-44
2023/01/31 08:34:09;;;;;;;18.58;3.65;;;6.50;99.90;;;;;;5029217;28;20558;-44
2023/01/31 08:36:35;;;;;;;9.43;1.55;;;5.70;99.90;;;;;;5028770;28;20051;-44
2023/01/31 08:39:02;;;;;;;13.93;1.45;;;5.60;99.90;;;;;;5028650;28;20045;-44
2023/01/31 08:41:29;;;;;;;14.38;2.42;;;5.60;99.90;;;;;;5028166;28;20147;-45
2023/01/31 08:43:56;;;;;;;12.35;1.52;;;5.80;99.90;;;;;;5028846;28;20044;-44
2023/01/31 08:46:23;;;;;;;7.93;1.13;;;6.10;99.90;;;;;;5028548;28;20461;-45
2023/01/31 08:48:49;;;;;;;11.65;1.42;;;6.60;99.90;;;;;;5028556;28;20052;-44
2023/01/31 08:51:15;;;;;;;9.00;1.27;;;6.10;99.90;;;;;;5028458;28;20045;-45
2023/01/31 08:53:45;;;;;;;12.30;2.05;;;6.40;99.90;;;;;;5028554;28;20120;-44
2023/01/31 08:56:12;;;;;;;22.60;3.75;;;6.80;99.90;;;;;;5028772;28;20085;-45
2023/01/31 08:58:43;;;;;;;10.10;1.02;;;6.80;99.90;;;;;;5028285;28;20053;-46
2023/01/31 09:01:11;;;;;;;12.30;1.42;;;6.10;99.90;;;;;;5029034;28;20041;-45
2023/01/31 09:03:37;;;;;;;7.15;1.27;;;6.10;99.90;;;;;;5028258;28;20041;-46
2023/01/31 09:06:05;;;;;;;9.23;1.48;;;6.20;99.90;;;;;;5027920;28;20113;-46
2023/01/31 09:08:31;;;;;;;12.32;2.10;;;6.00;99.90;;;;;;5043175;28;20677;-45
2023/01/31 09:11:00;;;;;;;12.18;2.13;;;6.70;99.90;;;;;;5028578;28;20045;-46
2023/01/31 09:13:27;;;;;;;10.68;1.60;;;6.70;99.90;;;;;;5028154;28;20033;-45
2023/01/31 09:16:07;;;;;;;6.35;1.10;;;6.60;99.90;;;;;;5028509;28;20053;-46
2023/01/31 09:18:34;;;;;;;11.77;1.60;;;6.10;99.90;;;;;;5027950;28;20099;-44
2023/01/31 09:21:13;;;;;;;10.05;2.15;;;6.40;99.90;;;;;;5028082;28;20037;-46
2023/01/31 09:23:39;;;;;;;12.35;1.20;;;6.20;99.90;;;;;;5028046;28;20073;-45
2023/01/31 09:26:05;;;;;;;10.65;1.33;;;6.60;99.90;;;;;;5027888;28;20045;-46
2023/01/31 09:28:31;;;;;;;11.27;1.52;;;6.60;99.90;;;;;;5027119;28;20048;-45
2023/01/31 09:31:09;;;;;;;13.38;2.28;;;6.70;99.90;;;;;;5027855;28;20041;-47
2023/01/31 09:33:35;;;;;;;11.52;1.73;;;7.10;99.90;;;;;;5027274;28;20049;-45
2023/01/31 09:36:02;;;;;;;12.77;1.80;;;7.30;99.90;;;;;;5027545;28;20675;-45
2023/01/31 09:38:28;;;;;;;10.32;1.40;;;6.40;99.90;;;;;;5027555;28;20391;-44
2023/01/31 09:40:56;;;;;;;16.40;2.30;;;6.70;99.90;;;;;;5027869;28;20041;-45
2023/01/31 09:43:27;;;;;;;13.68;1.95;;;6.40;99.90;;;;;;5027786;28;20551;-44
2023/01/31 09:45:57;;;;;;;12.40;2.47;;;6.60;99.90;;;;;;5027954;28;20081;-47
2023/01/31 09:48:28;;;;;;;14.27;2.17;;;6.60;99.90;;;;;;5027515;28;20124;-46
2023/01/31 09:50:57;;;;;;;8.30;1.07;;;7.20;99.90;;;;;;5027658;28;20046;-45
2023/01/31 09:53:32;;;;;;;13.77;2.38;;;6.60;99.90;;;;;;5026757;28;20781;-48
2023/01/31 09:56:33;;;;;;;6.57;1.23;;;6.60;99.90;;;;;;5027221;28;20048;-44
2023/01/31 09:59:31;;;;;;;11.98;2.63;;;6.60;99.90;;;;;;5027015;28;20507;-45
2023/01/31 10:02:25;;;;;;;8.60;1.63;;;6.70;99.90;;;;;;5027050;28;20052;-45
2023/01/31 10:05:22;;;;;;;15.77;2.05;;;6.70;99.90;;;;;;5027029;28;20068;-45
2023/01/31 10:07:56;;;;;;;11.55;2.95;;;6.70;99.90;;;;;;5026610;28;20037;-44
2023/01/31 10:10:50;;;;;;;11.60;2.08;;;7.40;99.90;;;;;;5025491;28;20158;-44
2023/01/31 10:13:32;;;;;;;8.70;0.98;;;6.70;99.90;;;;;;5008940;28;20045;-45
2023/01/31 10:16:31;;;;;;;10.75;1.20;;;6.70;99.90;;;;;;5027050;28;20045;-47
2023/01/31 10:19:21;;;;;;;12.82;1.50;;;6.60;99.90;;;;;;5024815;28;20057;-44
2023/01/31 10:21:56;;;;;;;16.33;1.65;;;6.70;99.90;;;;;;5026571;28;20051;-45
2023/01/31 10:25:02;;;;;;;9.85;1.65;;;6.50;99.90;;;;;;5026870;28;20566;-48
2023/01/31 10:27:35;;;;;;;9.90;1.35;;;6.70;99.90;;;;;;5025707;28;20064;-44
2023/01/31 10:30:06;;;;;;;9.68;1.83;;;6.30;99.90;;;;;;5026984;28;20179;-48
2023/01/31 10:32:42;;;;;;;10.70;1.48;;;6.70;99.90;;;;;;5026401;28;20075;-45
2023/01/31 10:35:26;;;;;;;14.20;2.50;;;6.70;99.90;;;;;;5026910;28;20042;-47
2023/01/31 10:38:00;;;;;;;13.10;1.98;;;6.80;99.90;;;;;;5024937;28;20107;-46
2023/01/31 10:40:34;;;;;;;13.27;2.55;;;7.30;99.90;;;;;;5026978;28;20045;-46
2023/01/31 10:43:10;;;;;;;16.30;2.65;;;7.40;99.90;;;;;;5026351;28;20054;-44
2023/01/31 10:45:37;;;;;;;9.90;1.50;;;6.80;99.90;;;;;;5026389;28;20045;-44
2023/01/31 10:48:15;;;;;;;13.48;1.50;;;6.80;99.90;;;;;;5025918;28;20499;-45
2023/01/31 10:50:59;;;;;;;13.88;2.05;;;6.90;99.90;;;;;;5026102;28;20049;-45
2023/01/31 10:53:42;;;;;;;14.10;1.70;;;6.80;99.90;;;;;;5026058;28;20042;-46
2023/01/31 10:56:32;;;;;;;20.77;2.63;;;6.70;99.90;;;;;;5025745;28;20045;-45
2023/01/31 10:59:00;;;;;;;17.25;2.85;;;6.70;99.90;;;;;;5025566;28;20400;-45
2023/01/31 11:01:26;;;;;;;12.85;1.90;;;7.50;99.90;;;;;;5025268;28;20045;-45
2023/01/31 11:03:54;;;;;;;14.40;3.28;;;7.40;99.90;;;;;;5024141;28;20483;-47
2023/01/31 11:06:22;;;;;;;11.25;1.63;;;7.00;99.90;;;;;;5025979;28;20041;-44
2023/01/31 11:08:57;;;;;;;11.95;2.50;;;7.10;99.90;;;;;;5026186;28;20053;-44
2023/01/31 11:11:25;;;;;;;10.05;2.17;;;6.60;99.90;;;;;;5026399;28;20042;-45
2023/01/31 11:14:06;;;;;;;15.93;2.25;;;7.20;99.90;;;;;;5026081;28;20073;-46
2023/01/31 11:16:37;;;;;;;12.50;2.03;;;7.20;99.90;;;;;;5025440;28;20518;-46
2023/01/31 11:19:48;;;;;;;12.50;3.22;;;6.50;99.90;;;;;;5025796;28;20050;-46
2023/01/31 11:22:22;;;;;;;15.48;2.42;;;6.50;99.90;;;;;;5025514;28;20098;-45
2023/01/31 11:24:49;;;;;;;7.32;2.08;;;6.40;99.90;;;;;;5024485;28;20037;-46
2023/01/31 11:27:42;;;;;;;16.88;2.50;;;7.10;99.90;;;;;;5024492;28;20124;-44
2023/01/31 11:30:22;;;;;;;13.85;2.05;;;6.50;99.90;;;;;;5029380;28;20067;-45
2023/01/31 11:32:48;;;;;;;13.30;2.15;;;6.50;99.90;;;;;;5029760;28;20081;-45
2023/01/31 11:35:13;;;;;;;14.45;2.08;;;6.60;99.90;;;;;;5029614;28;20056;-45
2023/01/31 11:37:51;;;;;;;15.20;2.33;;;6.40;99.90;;;;;;5029558;28;20037;-46
2023/01/31 11:40:21;;;;;;;12.82;1.95;;;6.50;99.90;;;;;;5029746;28;20114;-44
2023/01/31 11:43:18;;;;;;;16.00;2.25;;;6.60;99.90;;;;;;5029621;28;20156;-45
2023/01/31 11:45:52;;;;;;;12.35;1.40;;;6.60;99.90;;;;;;5028835;28;20387;-45
2023/01/31 11:48:22;;;;;;;10.73;1.63;;;6.60;99.90;;;;;;5029897;28;20045;-46
2023/01/31 11:50:54;;;;;;;11.45;1.75;;;6.60;99.90;;;;;;5029674;28;20055;-45
2023/01/31 11:53:25;;;;;;;10.77;1.95;;;7.40;99.90;;;;;;5029384;28;20103;-44
2023/01/31 11:55:54;;;;;;;12.38;2.13;;;7.60;99.90;;;;;;5029189;28;20052;-45
2023/01/31 11:58:30;;;;;;;9.50;2.33;;;7.30;99.90;;;;;;5028699;28;20123;-47
2023/01/31 12:01:05;;;;;;;10.05;1.70;;;6.60;99.90;;;;;;5028899;28;20044;-45
2023/01/31 12:03:32;;;;;;;11.13;1.00;;;7.30;99.90;;;;;;5029187;28;20037;-45
2023/01/31 12:06:07;;;;;;;12.27;1.95;;;6.50;99.90;;;;;;5027472;28;20045;-44
2023/01/31 12:08:38;;;;;;;17.27;1.92;;;6.70;99.90;;;;;;5028893;28;20048;-46
2023/01/31 12:11:31;;;;;;;14.20;1.60;;;6.70;99.90;;;;;;5028806;28;20088;-45
2023/01/31 12:14:06;;;;;;;17.23;2.40;;;6.70;99.90;;;;;;5028141;28;20423;-45
2023/01/31 12:16:33;;;;;;;22.00;3.08;;;7.10;99.90;;;;;;5029269;28;20056;-47
2023/01/31 12:19:10;;;;;;;13.45;2.35;;;7.30;99.90;;;;;;5029393;28;20168;-45
2023/01/31 12:22:04;;;;;;;18.27;2.85;;;6.90;99.90;;;;;;5029073;28;20548;-49
2023/01/31 12:24:39;;;;;;;17.88;2.53;;;6.90;99.90;;;;;;5029337;28;20140;-48
2023/01/31 12:27:42;;;;;;;18.13;2.67;;;6.90;99.90;;;;;;5029472;28;20171;-44
2023/01/31 12:30:13;;;;;;;;;;;7.00;99.90;;;;;;5028285;28;20364;-45
2023/01/31 12:32:57;;;;;;;13.60;1.98;;;7.00;99.90;;;;;;5029191;28;19925;-44
2023/01/31 12:35:29;;;;;;;13.23;2.30;;;7.00;99.90;;;;;;5028656;28;20841;-45
2023/01/31 12:38:06;;;;;;;10.55;1.55;;;7.20;99.90;;;;;;5029088;28;20041;-46
2023/01/31 12:40:42;;;;;;;14.63;1.75;;;7.20;99.90;;;;;;5028105;28;20143;-46
2023/01/31 12:43:43;;;;;;;18.33;2.20;;;7.20;99.90;;;;;;5029158;28;20041;-45
2023/01/31 12:46:14;;;;;;;17.02;2.70;;;7.30;99.90;;;;;;5028809;28;20060;-47
2023/01/31 12:48:59;;;;;;;9.48;1.38;;;7.40;99.90;;;;;;5029136;28;20033;-50
2023/01/31 12:51:58;;;;;;;10.85;1.38;;;7.50;99.90;;;;;;5029142;28;20068;-45
2023/01/31 12:54:39;;;;;;;11.57;1.20;;;7.50;99.90;;;;;;5027621;28;20037;-45
2023/01/31 12:57:19;;;;;;;11.27;1.40;;;7.40;99.90;;;;;;5028420;28;20064;-45
2023/01/31 13:00:06;;;;;;;13.15;2.17;;;7.50;99.90;;;;;;5029242;28;20053;-49
2023/01/31 13:03:03;;;;;;;19.08;1.95;;;7.50;99.90;;;;;;5027640;28;20379;-45
2023/01/31 13:05:52;;;;;;;10.48;1.65;;;7.60;99.90;;;;;;5027693;28;20033;-44
2023/01/31 13:08:22;;;;;;;14.23;2.00;;;8.20;99.90;;;;;;5028361;28;20041;-48
2023/01/31 13:11:25;;;;;;;12.70;1.55;;;8.50;99.90;;;;;;5027892;28;20049;-48
2023/01/31 13:14:02;;;;;;;15.90;1.50;;;7.90;99.90;;;;;;5027483;28;20507;-46
2023/01/31 13:16:41;;;;;;;11.70;1.02;;;7.80;99.90;;;;;;5027886;28;20079;-47
2023/01/31 13:19:16;;;;;;;12.52;1.65;;;8.90;99.90;;;;;;5026800;28;20477;-46